sensor_id;sensor_type;location;lat;lon;timestamp;P1;durP1;ratioP1;P2;durP2;ratioP2
76121;SDS011;70471;53.200;6.080;2024-03-06T00:01:47;2.00;;;1.50;;
76121;SDS011;70471;53.200;6.080;2024-03-06T00:06:42;2.53;;;2.10;;
76121;SDS011;70471;53.200;6.080;2024-03-06T00:11:35;1.95;;;1.77;;
76121;SDS011;70471;53.200;6.080;2024-03-06T00:16:27;1.88;;;1.60;;
76121;SDS011;70471;53.200;6.080;2024-03-06T00:21:20;2.28;;;2.00;;
76121;SDS011;70471;53.200;6.080;2024-03-06T00:26:13;1.60;;;1.50;;
76121;SDS011;70471;53.200;6.080;2024-03-06T00:31:05;2.42;;;1.52;;
76121;SDS011;70471;53.200;6.080;2024-03-06T00:35:59;1.92;;;1.75;;
76121;SDS011;70471;53.200;6.080;2024-03-06T00:40:51;2.60;;;1.60;;
76121;SDS011;70471;53.200;6.080;2024-03-06T00:45:45;2.08;;;1.80;;
76121;SDS011;70471;53.200;6.080;2024-03-06T00:50:39;2.28;;;1.98;;
76121;SDS011;70471;53.200;6.080;2024-03-06T00:55:31;1.60;;;1.50;;
76121;SDS011;70471;53.200;6.080;2024-03-06T01:00:24;2.03;;;1.77;;
76121;SDS011;70471;53.200;6.080;2024-03-06T01:05:20;1.38;;;1.27;;
76121;SDS011;70471;53.200;6.080;2024-03-06T01:10:12;2.33;;;1.67;;
76121;SDS011;70471;53.200;6.080;2024-03-06T01:15:05;1.92;;;1.60;;
76121;SDS011;70471;53.200;6.080;2024-03-06T01:19:59;1.50;;;1.30;;
76121;SDS011;70471;53.200;6.080;2024-03-06T01:24:54;1.70;;;1.60;;
76121;SDS011;70471;53.200;6.080;2024-03-06T01:29:46;2.00;;;1.58;;
76121;SDS011;70471;53.200;6.080;2024-03-06T01:34:39;3.40;;;1.85;;
76121;SDS011;70471;53.200;6.080;2024-03-06T01:39:31;1.85;;;1.35;;
76121;SDS011;70471;53.200;6.080;2024-03-06T01:44:27;2.58;;;1.95;;
76121;SDS011;70471;53.200;6.080;2024-03-06T01:49:20;2.03;;;1.55;;
76121;SDS011;70471;53.200;6.080;2024-03-06T01:54:14;1.85;;;1.70;;
76121;SDS011;70471;53.200;6.080;2024-03-06T01:59:07;2.20;;;1.60;;
76121;SDS011;70471;53.200;6.080;2024-03-06T02:04:02;1.75;;;1.40;;
76121;SDS011;70471;53.200;6.080;2024-03-06T02:08:56;1.95;;;1.50;;
76121;SDS011;70471;53.200;6.080;2024-03-06T02:13:49;1.95;;;1.60;;
76121;SDS011;70471;53.200;6.080;2024-03-06T02:18:51;1.90;;;1.70;;
76121;SDS011;70471;53.200;6.080;2024-03-06T02:23:46;1.90;;;1.42;;
76121;SDS011;70471;53.200;6.080;2024-03-06T02:28:46;1.75;;;1.52;;
76121;SDS011;70471;53.200;6.080;2024-03-06T02:33:40;2.10;;;1.67;;
76121;SDS011;70471;53.200;6.080;2024-03-06T02:38:33;2.40;;;1.52;;
76121;SDS011;70471;53.200;6.080;2024-03-06T02:43:27;1.98;;;1.67;;
76121;SDS011;70471;53.200;6.080;2024-03-06T02:48:19;2.00;;;1.60;;
76121;SDS011;70471;53.200;6.080;2024-03-06T02:53:11;2.55;;;1.50;;
76121;SDS011;70471;53.200;6.080;2024-03-06T02:58:03;2.67;;;1.65;;
76121;SDS011;70471;53.200;6.080;2024-03-06T03:02:59;2.25;;;1.75;;
76121;SDS011;70471;53.200;6.080;2024-03-06T03:07:52;2.05;;;1.85;;
76121;SDS011;70471;53.200;6.080;2024-03-06T03:12:45;1.67;;;1.50;;
76121;SDS011;70471;53.200;6.080;2024-03-06T03:17:37;2.35;;;1.48;;
76121;SDS011;70471;53.200;6.080;2024-03-06T03:22:31;2.08;;;1.27;;
76121;SDS011;70471;53.200;6.080;2024-03-06T03:27:24;2.00;;;1.42;;
76121;SDS011;70471;53.200;6.080;2024-03-06T03:32:17;2.10;;;1.80;;
76121;SDS011;70471;53.200;6.080;2024-03-06T03:37:10;2.40;;;1.52;;
76121;SDS011;70471;53.200;6.080;2024-03-06T03:42:07;2.83;;;1.40;;
76121;SDS011;70471;53.200;6.080;2024-03-06T03:47:00;1.52;;;1.38;;
76121;SDS011;70471;53.200;6.080;2024-03-06T03:51:52;1.40;;;1.20;;
76121;SDS011;70471;53.200;6.080;2024-03-06T03:56:45;1.75;;;1.35;;
76121;SDS011;70471;53.200;6.080;2024-03-06T04:01:39;1.73;;;1.40;;
76121;SDS011;70471;53.200;6.080;2024-03-06T04:06:32;2.40;;;1.65;;
76121;SDS011;70471;53.200;6.080;2024-03-06T04:11:26;2.35;;;1.50;;
76121;SDS011;70471;53.200;6.080;2024-03-06T04:16:19;2.45;;;1.38;;
76121;SDS011;70471;53.200;6.080;2024-03-06T04:21:13;1.45;;;1.33;;
76121;SDS011;70471;53.200;6.080;2024-03-06T04:26:06;1.83;;;1.60;;
76121;SDS011;70471;53.200;6.080;2024-03-06T04:30:58;1.70;;;1.58;;
76121;SDS011;70471;53.200;6.080;2024-03-06T04:35:50;2.17;;;1.40;;
76121;SDS011;70471;53.200;6.080;2024-03-06T04:40:44;1.80;;;1.52;;
76121;SDS011;70471;53.200;6.080;2024-03-06T04:45:37;3.25;;;2.15;;
76121;SDS011;70471;53.200;6.080;2024-03-06T04:50:29;2.00;;;1.40;;
76121;SDS011;70471;53.200;6.080;2024-03-06T04:55:23;2.15;;;1.50;;
76121;SDS011;70471;53.200;6.080;2024-03-06T05:00:19;2.38;;;1.77;;
76121;SDS011;70471;53.200;6.080;2024-03-06T05:05:11;1.95;;;1.30;;
76121;SDS011;70471;53.200;6.080;2024-03-06T05:10:04;2.08;;;1.83;;
76121;SDS011;70471;53.200;6.080;2024-03-06T05:14:58;1.70;;;1.27;;
76121;SDS011;70471;53.200;6.080;2024-03-06T05:19:52;1.45;;;1.35;;
76121;SDS011;70471;53.200;6.080;2024-03-06T05:24:45;1.63;;;1.50;;
76121;SDS011;70471;53.200;6.080;2024-03-06T05:29:38;3.80;;;1.73;;
76121;SDS011;70471;53.200;6.080;2024-03-06T05:34:33;1.50;;;1.20;;
76121;SDS011;70471;53.200;6.080;2024-03-06T05:39:28;2.20;;;1.55;;
76121;SDS011;70471;53.200;6.080;2024-03-06T05:44:20;2.78;;;1.48;;
76121;SDS011;70471;53.200;6.080;2024-03-06T05:49:13;1.80;;;1.38;;
76121;SDS011;70471;53.200;6.080;2024-03-06T05:54:06;2.10;;;1.50;;
76121;SDS011;70471;53.200;6.080;2024-03-06T05:59:01;2.10;;;1.63;;
76121;SDS011;70471;53.200;6.080;2024-03-06T06:03:58;1.58;;;1.23;;
76121;SDS011;70471;53.200;6.080;2024-03-06T06:08:50;1.77;;;1.52;;
76121;SDS011;70471;53.200;6.080;2024-03-06T06:13:44;1.88;;;1.45;;
76121;SDS011;70471;53.200;6.080;2024-03-06T06:18:39;2.10;;;1.70;;
76121;SDS011;70471;53.200;6.080;2024-03-06T06:23:32;1.92;;;1.50;;
76121;SDS011;70471;53.200;6.080;2024-03-06T06:28:25;2.22;;;1.67;;
76121;SDS011;70471;53.200;6.080;2024-03-06T06:33:18;1.77;;;1.55;;
76121;SDS011;70471;53.200;6.080;2024-03-06T06:38:12;1.85;;;1.42;;
76121;SDS011;70471;53.200;6.080;2024-03-06T06:43:05;2.35;;;1.60;;
76121;SDS011;70471;53.200;6.080;2024-03-06T06:47:57;2.00;;;1.50;;
76121;SDS011;70471;53.200;6.080;2024-03-06T06:52:50;2.13;;;1.80;;
76121;SDS011;70471;53.200;6.080;2024-03-06T06:57:44;2.42;;;1.70;;
76121;SDS011;70471;53.200;6.080;2024-03-06T07:02:38;2.55;;;1.60;;
76121;SDS011;70471;53.200;6.080;2024-03-06T07:07:31;2.55;;;1.70;;
76121;SDS011;70471;53.200;6.080;2024-03-06T07:12:24;2.30;;;1.75;;
76121;SDS011;70471;53.200;6.080;2024-03-06T07:17:18;3.08;;;1.92;;
76121;SDS011;70471;53.200;6.080;2024-03-06T07:22:11;2.45;;;1.50;;
76121;SDS011;70471;53.200;6.080;2024-03-06T07:27:03;2.35;;;1.55;;
76121;SDS011;70471;53.200;6.080;2024-03-06T07:31:56;1.95;;;1.58;;
76121;SDS011;70471;53.200;6.080;2024-03-06T07:36:52;2.50;;;1.90;;
76121;SDS011;70471;53.200;6.080;2024-03-06T07:41:45;1.92;;;1.70;;
76121;SDS011;70471;53.200;6.080;2024-03-06T07:46:38;1.65;;;1.55;;
76121;SDS011;70471;53.200;6.080;2024-03-06T07:51:30;1.52;;;1.42;;
76121;SDS011;70471;53.200;6.080;2024-03-06T07:56:24;2.13;;;1.20;;
76121;SDS011;70471;53.200;6.080;2024-03-06T08:01:17;3.20;;;2.13;;
76121;SDS011;70471;53.200;6.080;2024-03-06T08:06:10;2.50;;;1.92;;
76121;SDS011;70471;53.200;6.080;2024-03-06T08:11:05;3.42;;;1.58;;
76121;SDS011;70471;53.200;6.080;2024-03-06T08:15:59;1.42;;;1.25;;
76121;SDS011;70471;53.200;6.080;2024-03-06T08:20:51;3.10;;;1.48;;
76121;SDS011;70471;53.200;6.080;2024-03-06T08:25:45;2.22;;;1.50;;
76121;SDS011;70471;53.200;6.080;2024-03-06T08:30:38;2.50;;;1.60;;
76121;SDS011;70471;53.200;6.080;2024-03-06T08:35:32;2.00;;;1.48;;
76121;SDS011;70471;53.200;6.080;2024-03-06T08:40:25;1.50;;;1.40;;
76121;SDS011;70471;53.200;6.080;2024-03-06T08:45:18;1.90;;;1.58;;
76121;SDS011;70471;53.200;6.080;2024-03-06T08:50:11;2.35;;;1.63;;
76121;SDS011;70471;53.200;6.080;2024-03-06T08:55:06;1.92;;;1.42;;
76121;SDS011;70471;53.200;6.080;2024-03-06T08:59:59;2.05;;;1.40;;
76121;SDS011;70471;53.200;6.080;2024-03-06T09:04:51;1.75;;;1.20;;
76121;SDS011;70471;53.200;6.080;2024-03-06T09:09:44;2.10;;;1.90;;
76121;SDS011;70471;53.200;6.080;2024-03-06T09:14:38;1.90;;;1.60;;
76121;SDS011;70471;53.200;6.080;2024-03-06T09:19:31;2.55;;;1.85;;
76121;SDS011;70471;53.200;6.080;2024-03-06T09:24:24;2.28;;;2.00;;
76121;SDS011;70471;53.200;6.080;2024-03-06T09:29:16;2.55;;;1.77;;
76121;SDS011;70471;53.200;6.080;2024-03-06T09:34:11;2.63;;;1.88;;
76121;SDS011;70471;53.200;6.080;2024-03-06T09:39:04;3.25;;;2.10;;
76121;SDS011;70471;53.200;6.080;2024-03-06T09:43:59;2.97;;;2.08;;
76121;SDS011;70471;53.200;6.080;2024-03-06T09:48:53;2.20;;;1.90;;
76121;SDS011;70471;53.200;6.080;2024-03-06T09:53:47;3.25;;;2.00;;
76121;SDS011;70471;53.200;6.080;2024-03-06T09:58:42;2.78;;;1.67;;
76121;SDS011;70471;53.200;6.080;2024-03-06T10:03:36;2.58;;;2.00;;
76121;SDS011;70471;53.200;6.080;2024-03-06T10:08:30;3.08;;;1.85;;
76121;SDS011;70471;53.200;6.080;2024-03-06T10:13:24;3.83;;;2.08;;
76121;SDS011;70471;53.200;6.080;2024-03-06T10:18:16;3.83;;;2.00;;
76121;SDS011;70471;53.200;6.080;2024-03-06T10:23:10;2.60;;;1.70;;
76121;SDS011;70471;53.200;6.080;2024-03-06T10:28:05;4.28;;;2.08;;
76121;SDS011;70471;53.200;6.080;2024-03-06T10:33:00;3.05;;;1.95;;
76121;SDS011;70471;53.200;6.080;2024-03-06T10:37:53;3.15;;;2.20;;
76121;SDS011;70471;53.200;6.080;2024-03-06T10:42:46;4.35;;;2.17;;
76121;SDS011;70471;53.200;6.080;2024-03-06T10:47:39;3.28;;;2.20;;
76121;SDS011;70471;53.200;6.080;2024-03-06T10:52:32;2.70;;;2.08;;
76121;SDS011;70471;53.200;6.080;2024-03-06T10:57:26;3.53;;;2.17;;
76121;SDS011;70471;53.200;6.080;2024-03-06T11:02:22;3.00;;;2.03;;
76121;SDS011;70471;53.200;6.080;2024-03-06T11:07:16;4.32;;;2.38;;
76121;SDS011;70471;53.200;6.080;2024-03-06T11:12:10;2.70;;;1.90;;
76121;SDS011;70471;53.200;6.080;2024-03-06T11:17:03;3.08;;;2.17;;
76121;SDS011;70471;53.200;6.080;2024-03-06T11:21:56;3.40;;;2.15;;
76121;SDS011;70471;53.200;6.080;2024-03-06T11:26:49;3.75;;;2.42;;
76121;SDS011;70471;53.200;6.080;2024-03-06T11:36:53;3.92;;;2.20;;
76121;SDS011;70471;53.200;6.080;2024-03-06T11:41:49;2.75;;;2.05;;
76121;SDS011;70471;53.200;6.080;2024-03-06T11:46:42;2.50;;;2.08;;
76121;SDS011;70471;53.200;6.080;2024-03-06T11:51:36;3.65;;;2.30;;
76121;SDS011;70471;53.200;6.080;2024-03-06T11:56:29;2.75;;;1.65;;
76121;SDS011;70471;53.200;6.080;2024-03-06T12:01:21;2.97;;;2.40;;
76121;SDS011;70471;53.200;6.080;2024-03-06T12:06:15;3.08;;;2.22;;
76121;SDS011;70471;53.200;6.080;2024-03-06T12:11:11;3.72;;;2.30;;
76121;SDS011;70471;53.200;6.080;2024-03-06T12:16:04;3.80;;;2.35;;
76121;SDS011;70471;53.200;6.080;2024-03-06T12:21:00;4.50;;;2.97;;
76121;SDS011;70471;53.200;6.080;2024-03-06T12:26:02;3.40;;;2.25;;
76121;SDS011;70471;53.200;6.080;2024-03-06T12:30:57;3.75;;;2.30;;
76121;SDS011;70471;53.200;6.080;2024-03-06T12:36:00;4.28;;;2.50;;
76121;SDS011;70471;53.200;6.080;2024-03-06T12:40:57;3.35;;;2.50;;
76121;SDS011;70471;53.200;6.080;2024-03-06T12:45:49;3.42;;;2.38;;
76121;SDS011;70471;53.200;6.080;2024-03-06T12:50:46;3.30;;;2.22;;
76121;SDS011;70471;53.200;6.080;2024-03-06T13:00:33;3.40;;;2.63;;
76121;SDS011;70471;53.200;6.080;2024-03-06T13:05:29;6.15;;;3.92;;
76121;SDS011;70471;53.200;6.080;2024-03-06T13:10:23;7.70;;;3.97;;
76121;SDS011;70471;53.200;6.080;2024-03-06T13:15:16;5.32;;;3.88;;
76121;SDS011;70471;53.200;6.080;2024-03-06T13:20:10;5.68;;;4.05;;
76121;SDS011;70471;53.200;6.080;2024-03-06T13:25:03;7.50;;;4.38;;
76121;SDS011;70471;53.200;6.080;2024-03-06T13:29:58;5.97;;;3.97;;
76121;SDS011;70471;53.200;6.080;2024-03-06T13:34:50;6.70;;;3.78;;
76121;SDS011;70471;53.200;6.080;2024-03-06T13:44:33;5.10;;;3.47;;
76121;SDS011;70471;53.200;6.080;2024-03-06T13:49:36;5.70;;;3.20;;
76121;SDS011;70471;53.200;6.080;2024-03-06T13:54:29;6.85;;;2.95;;
76121;SDS011;70471;53.200;6.080;2024-03-06T13:59:21;4.13;;;3.20;;
76121;SDS011;70471;53.200;6.080;2024-03-06T14:09:06;4.22;;;3.20;;
76121;SDS011;70471;53.200;6.080;2024-03-06T14:13:58;4.55;;;3.00;;
76121;SDS011;70471;53.200;6.080;2024-03-06T14:18:50;4.40;;;3.30;;
76121;SDS011;70471;53.200;6.080;2024-03-06T14:23:44;5.30;;;2.72;;
76121;SDS011;70471;53.200;6.080;2024-03-06T14:28:37;7.25;;;2.80;;
76121;SDS011;70471;53.200;6.080;2024-03-06T14:33:29;3.70;;;2.80;;
76121;SDS011;70471;53.200;6.080;2024-03-06T14:43:13;3.50;;;2.42;;
76121;SDS011;70471;53.200;6.080;2024-03-06T14:48:09;3.90;;;2.40;;
76121;SDS011;70471;53.200;6.080;2024-03-06T14:53:01;2.58;;;2.13;;
76121;SDS011;70471;53.200;6.080;2024-03-06T14:57:53;3.60;;;2.40;;
76121;SDS011;70471;53.200;6.080;2024-03-06T15:02:45;3.03;;;2.33;;
76121;SDS011;70471;53.200;6.080;2024-03-06T15:07:39;3.47;;;2.60;;
76121;SDS011;70471;53.200;6.080;2024-03-06T15:12:31;4.68;;;2.60;;
76121;SDS011;70471;53.200;6.080;2024-03-06T15:17:22;3.40;;;2.30;;
76121;SDS011;70471;53.200;6.080;2024-03-06T15:22:15;3.47;;;2.80;;
76121;SDS011;70471;53.200;6.080;2024-03-06T15:27:09;3.08;;;2.65;;
76121;SDS011;70471;53.200;6.080;2024-03-06T15:32:02;3.65;;;2.67;;
76121;SDS011;70471;53.200;6.080;2024-03-06T15:36:55;4.60;;;2.70;;
76121;SDS011;70471;53.200;6.080;2024-03-06T15:41:48;2.70;;;2.15;;
76121;SDS011;70471;53.200;6.080;2024-03-06T15:46:41;4.00;;;2.92;;
76121;SDS011;70471;53.200;6.080;2024-03-06T15:51:33;3.65;;;2.90;;
76121;SDS011;70471;53.200;6.080;2024-03-06T15:56:26;2.67;;;2.22;;
76121;SDS011;70471;53.200;6.080;2024-03-06T16:01:19;3.22;;;2.40;;
76121;SDS011;70471;53.200;6.080;2024-03-06T16:06:11;3.63;;;2.67;;
76121;SDS011;70471;53.200;6.080;2024-03-06T16:11:03;3.22;;;2.70;;
76121;SDS011;70471;53.200;6.080;2024-03-06T16:15:56;3.70;;;2.65;;
76121;SDS011;70471;53.200;6.080;2024-03-06T16:20:48;3.65;;;3.00;;
76121;SDS011;70471;53.200;6.080;2024-03-06T16:25:41;3.45;;;2.22;;
76121;SDS011;70471;53.200;6.080;2024-03-06T16:30:33;2.90;;;2.40;;
76121;SDS011;70471;53.200;6.080;2024-03-06T16:35:26;3.28;;;2.50;;
76121;SDS011;70471;53.200;6.080;2024-03-06T16:40:18;3.55;;;2.85;;
76121;SDS011;70471;53.200;6.080;2024-03-06T16:45:14;4.00;;;2.97;;
76121;SDS011;70471;53.200;6.080;2024-03-06T16:50:07;2.92;;;2.53;;
76121;SDS011;70471;53.200;6.080;2024-03-06T16:55:00;3.50;;;2.80;;
76121;SDS011;70471;53.200;6.080;2024-03-06T16:59:53;2.25;;;2.00;;
76121;SDS011;70471;53.200;6.080;2024-03-06T17:04:46;3.40;;;2.55;;
76121;SDS011;70471;53.200;6.080;2024-03-06T17:09:38;4.28;;;2.50;;
76121;SDS011;70471;53.200;6.080;2024-03-06T17:14:30;3.03;;;2.60;;
76121;SDS011;70471;53.200;6.080;2024-03-06T17:19:22;2.90;;;2.10;;
76121;SDS011;70471;53.200;6.080;2024-03-06T17:24:15;2.15;;;1.95;;
76121;SDS011;70471;53.200;6.080;2024-03-06T17:29:07;3.08;;;2.28;;
76121;SDS011;70471;53.200;6.080;2024-03-06T17:33:59;2.45;;;2.25;;
76121;SDS011;70471;53.200;6.080;2024-03-06T17:38:50;3.60;;;2.50;;
76121;SDS011;70471;53.200;6.080;2024-03-06T17:43:43;3.13;;;2.17;;
76121;SDS011;70471;53.200;6.080;2024-03-06T17:48:35;3.08;;;2.42;;
76121;SDS011;70471;53.200;6.080;2024-03-06T17:53:27;2.95;;;2.30;;
76121;SDS011;70471;53.200;6.080;2024-03-06T17:58:18;4.30;;;2.50;;
76121;SDS011;70471;53.200;6.080;2024-03-06T18:03:11;2.47;;;2.10;;
76121;SDS011;70471;53.200;6.080;2024-03-06T18:08:03;1.95;;;1.85;;
76121;SDS011;70471;53.200;6.080;2024-03-06T18:12:55;2.42;;;1.80;;
76121;SDS011;70471;53.200;6.080;2024-03-06T18:17:47;1.90;;;1.75;;
76121;SDS011;70471;53.200;6.080;2024-03-06T18:22:41;2.92;;;2.22;;
76121;SDS011;70471;53.200;6.080;2024-03-06T18:27:35;2.60;;;2.13;;
76121;SDS011;70471;53.200;6.080;2024-03-06T18:32:27;3.08;;;2.42;;
76121;SDS011;70471;53.200;6.080;2024-03-06T18:37:19;4.03;;;2.53;;
76121;SDS011;70471;53.200;6.080;2024-03-06T18:42:12;3.20;;;2.33;;
76121;SDS011;70471;53.200;6.080;2024-03-06T18:47:04;5.43;;;3.08;;
76121;SDS011;70471;53.200;6.080;2024-03-06T18:51:56;2.78;;;2.40;;
76121;SDS011;70471;53.200;6.080;2024-03-06T18:56:48;2.95;;;2.45;;
76121;SDS011;70471;53.200;6.080;2024-03-06T19:01:43;2.88;;;2.10;;
76121;SDS011;70471;53.200;6.080;2024-03-06T19:06:35;3.08;;;2.22;;
76121;SDS011;70471;53.200;6.080;2024-03-06T19:11:27;3.33;;;2.45;;
76121;SDS011;70471;53.200;6.080;2024-03-06T19:16:18;3.95;;;2.90;;
76121;SDS011;70471;53.200;6.080;2024-03-06T19:21:12;3.55;;;2.67;;
76121;SDS011;70471;53.200;6.080;2024-03-06T19:26:03;3.55;;;2.42;;
76121;SDS011;70471;53.200;6.080;2024-03-06T19:30:55;2.97;;;2.65;;
76121;SDS011;70471;53.200;6.080;2024-03-06T19:35:50;4.15;;;2.80;;
76121;SDS011;70471;53.200;6.080;2024-03-06T19:40:43;3.42;;;3.00;;
76121;SDS011;70471;53.200;6.080;2024-03-06T19:45:35;3.38;;;2.60;;
76121;SDS011;70471;53.200;6.080;2024-03-06T19:50:26;2.88;;;2.38;;
76121;SDS011;70471;53.200;6.080;2024-03-06T19:55:18;4.25;;;2.78;;
76121;SDS011;70471;53.200;6.080;2024-03-06T20:00:15;3.85;;;2.47;;
76121;SDS011;70471;53.200;6.080;2024-03-06T20:05:09;3.72;;;2.60;;
76121;SDS011;70471;53.200;6.080;2024-03-06T20:10:01;3.88;;;2.40;;
76121;SDS011;70471;53.200;6.080;2024-03-06T20:14:52;4.65;;;2.72;;
76121;SDS011;70471;53.200;6.080;2024-03-06T20:19:45;3.22;;;2.22;;
76121;SDS011;70471;53.200;6.080;2024-03-06T20:24:40;3.65;;;2.85;;
76121;SDS011;70471;53.200;6.080;2024-03-06T20:29:32;3.40;;;2.47;;
76121;SDS011;70471;53.200;6.080;2024-03-06T20:34:24;3.22;;;2.42;;
76121;SDS011;70471;53.200;6.080;2024-03-06T20:39:17;2.50;;;2.30;;
76121;SDS011;70471;53.200;6.080;2024-03-06T20:44:09;3.22;;;2.28;;
76121;SDS011;70471;53.200;6.080;2024-03-06T20:49:01;4.07;;;2.67;;
76121;SDS011;70471;53.200;6.080;2024-03-06T20:53:53;3.40;;;2.35;;
76121;SDS011;70471;53.200;6.080;2024-03-06T20:58:46;2.60;;;2.20;;
76121;SDS011;70471;53.200;6.080;2024-03-06T21:03:37;3.03;;;2.10;;
76121;SDS011;70471;53.200;6.080;2024-03-06T21:08:29;3.97;;;2.75;;
76121;SDS011;70471;53.200;6.080;2024-03-06T21:13:20;3.97;;;2.80;;
76121;SDS011;70471;53.200;6.080;2024-03-06T21:18:21;4.63;;;2.70;;
76121;SDS011;70471;53.200;6.080;2024-03-06T21:23:13;2.50;;;2.28;;
76121;SDS011;70471;53.200;6.080;2024-03-06T21:28:08;3.38;;;2.72;;
76121;SDS011;70471;53.200;6.080;2024-03-06T21:32:59;3.40;;;2.33;;
76121;SDS011;70471;53.200;6.080;2024-03-06T21:37:59;2.55;;;2.30;;
76121;SDS011;70471;53.200;6.080;2024-03-06T21:42:52;3.05;;;2.65;;
76121;SDS011;70471;53.200;6.080;2024-03-06T21:47:44;2.80;;;2.17;;
76121;SDS011;70471;53.200;6.080;2024-03-06T21:52:35;3.25;;;2.47;;
76121;SDS011;70471;53.200;6.080;2024-03-06T21:57:33;2.53;;;2.20;;
76121;SDS011;70471;53.200;6.080;2024-03-06T22:02:24;2.20;;;2.00;;
76121;SDS011;70471;53.200;6.080;2024-03-06T22:07:16;3.05;;;2.03;;
76121;SDS011;70471;53.200;6.080;2024-03-06T22:12:08;3.08;;;2.13;;
76121;SDS011;70471;53.200;6.080;2024-03-06T22:22:15;2.92;;;2.08;;
76121;SDS011;70471;53.200;6.080;2024-03-06T22:27:08;2.42;;;2.20;;
76121;SDS011;70471;53.200;6.080;2024-03-06T22:32:06;2.17;;;1.90;;
76121;SDS011;70471;53.200;6.080;2024-03-06T22:37:11;2.13;;;1.90;;
76121;SDS011;70471;53.200;6.080;2024-03-06T22:42:03;2.65;;;1.88;;
76121;SDS011;70471;53.200;6.080;2024-03-06T22:46:56;2.50;;;2.30;;
76121;SDS011;70471;53.200;6.080;2024-03-06T22:51:50;2.65;;;2.00;;
76121;SDS011;70471;53.200;6.080;2024-03-06T22:56:58;2.47;;;2.28;;
76121;SDS011;70471;53.200;6.080;2024-03-06T23:01:52;2.58;;;2.03;;
76121;SDS011;70471;53.200;6.080;2024-03-06T23:06:47;2.20;;;1.70;;
76121;SDS011;70471;53.200;6.080;2024-03-06T23:11:40;2.08;;;1.75;;
76121;SDS011;70471;53.200;6.080;2024-03-06T23:16:37;2.10;;;1.83;;
76121;SDS011;70471;53.200;6.080;2024-03-06T23:21:42;2.63;;;1.83;;
76121;SDS011;70471;53.200;6.080;2024-03-06T23:26:35;2.03;;;1.83;;
76121;SDS011;70471;53.200;6.080;2024-03-06T23:36:23;2.17;;;1.98;;
76121;SDS011;70471;53.200;6.080;2024-03-06T23:41:18;2.08;;;1.70;;
76121;SDS011;70471;53.200;6.080;2024-03-06T23:46:12;2.78;;;1.88;;
76121;SDS011;70471;53.200;6.080;2024-03-06T23:51:20;2.60;;;1.95;;
76121;SDS011;70471;53.200;6.080;2024-03-06T23:56:27;2.10;;;1.83;;
